Time;durP1;ratioP1;P1;durP2;ratioP2;P2;SDS_P1;SDS_P2;PMS_P1;PMS_P2;Temp;Humidity;BMP_temperature;BMP_pressure;BME280_temperature;BME280_humidity;BME280_pressure;Samples;Min_cycle;Max_cycle;Signal;HPM_P1;HPM_P2
2021/12/07 00:00:39;;;;;;;13.77;7.15;;;8.80;60.30;;;;;;6211050;28;20725;-67
2021/12/07 00:03:41;;;;;;;13.50;6.20;;;8.80;60.40;;;;;;6207171;28;20332;-67
2021/12/07 00:06:42;;;;;;;16.70;6.85;;;8.80;60.40;;;;;;6209590;28;20049;-67
2021/12/07 00:09:45;;;;;;;12.40;6.70;;;8.90;60.40;;;;;;6212896;28;20057;-67
2021/12/07 00:12:46;;;;;;;13.23;7.00;;;8.90;60.40;;;;;;6211727;28;20038;-67
2021/12/07 00:15:47;;;;;;;17.77;7.07;;;8.90;60.30;;;;;;6177963;28;20030;-67
2021/12/07 00:18:49;;;;;;;14.00;6.72;;;8.90;60.10;;;;;;6222118;28;20413;-67
2021/12/07 00:21:51;;;;;;;24.50;6.53;;;9.00;60.00;;;;;;6240016;28;20029;-68
2021/12/07 00:24:52;;;;;;;14.65;6.35;;;8.90;59.90;;;;;;6237928;28;20041;-67
2021/12/07 00:27:53;;;;;;;10.70;6.15;;;8.90;59.90;;;;;;6229928;28;20052;-67
2021/12/07 00:30:55;;;;;;;11.63;6.13;;;9.00;59.70;;;;;;6238240;28;20030;-67
2021/12/07 00:37:29;;;;;;;13.15;6.53;;;8.90;59.80;;;;;;6222813;28;20037;-67
2021/12/07 00:40:31;;;;;;;10.55;5.63;;;8.90;59.80;;;;;;6236372;28;20401;-67
2021/12/07 00:43:33;;;;;;;14.65;5.95;;;8.90;59.90;;;;;;6235328;28;20037;-67
2021/12/07 00:46:35;;;;;;;19.33;6.45;;;8.90;60.10;;;;;;6237550;28;20363;-67
2021/12/07 00:49:36;;;;;;;13.88;5.30;;;8.90;60.30;;;;;;6212048;28;20117;-68
2021/12/07 00:52:37;;;;;;;13.18;5.65;;;8.90;60.40;;;;;;6193575;28;20381;-68
2021/12/07 00:55:42;;;;;;;11.45;6.03;;;8.90;60.50;;;;;;6213994;28;20046;-68
2021/12/07 00:58:43;;;;;;;11.07;5.90;;;8.90;60.60;;;;;;6197886;28;20121;-68
2021/12/07 01:01:44;;;;;;;7.22;3.85;;;8.90;60.70;;;;;;6216354;28;20030;-69
2021/12/07 01:04:51;;;;;;;8.02;3.72;;;8.90;60.70;;;;;;6226387;28;20118;-68
2021/12/07 01:08:17;;;;;;;11.02;6.43;;;8.90;60.60;;;;;;6242539;28;20041;-68
2021/12/07 01:24:41;;;;;;;14.57;7.38;;;8.70;61.90;;;;;;6243636;28;20061;-67
2021/12/07 01:27:43;;;;;;;11.82;6.43;;;8.60;62.10;;;;;;6243192;28;20033;-67
2021/12/07 01:50:15;;;;;;;10.63;6.25;;;8.40;62.90;;;;;;6238214;28;20362;-67
2021/12/07 01:57:50;;;;;;;16.42;8.40;;;8.40;62.90;;;;;;6235596;28;20037;-67
2021/12/07 01:59:59;;;;;;;13.38;6.15;;;8.40;63.20;;;;;;6222033;28;20074;-67
2021/12/07 02:03:00;;;;;;;13.73;6.30;;;8.30;63.40;;;;;;6205895;28;20481;-67
2021/12/07 02:06:01;;;;;;;11.68;5.93;;;8.30;63.40;;;;;;6211925;28;20050;-67
2021/12/07 02:09:05;;;;;;;12.73;6.05;;;8.30;63.50;;;;;;6215849;28;20041;-68
2021/12/07 02:12:08;;;;;;;14.75;6.05;;;8.30;63.40;;;;;;6224222;28;20095;-68
2021/12/07 02:15:13;;;;;;;16.02;5.63;;;8.20;63.50;;;;;;6227024;28;20025;-67
2021/12/07 02:18:14;;;;;;;12.68;6.50;;;8.20;63.70;;;;;;6234052;28;20478;-67
2021/12/07 02:21:22;;;;;;;10.60;5.65;;;8.20;63.90;;;;;;6215384;28;20026;-68
2021/12/07 02:24:29;;;;;;;11.05;5.10;;;8.20;63.90;;;;;;6235054;28;20036;-68
2021/12/07 02:27:30;;;;;;;12.10;5.30;;;8.20;64.10;;;;;;6223097;28;20041;-67
2021/12/07 02:30:31;;;;;;;11.77;4.85;;;8.20;64.10;;;;;;6237438;28;20033;-67
2021/12/07 02:33:32;;;;;;;9.82;6.25;;;8.10;64.20;;;;;;6221652;28;20427;-67
2021/12/07 02:36:35;;;;;;;11.65;5.55;;;8.10;64.30;;;;;;6237533;28;20040;-68
2021/12/07 02:39:40;;;;;;;7.85;4.72;;;8.00;64.50;;;;;;6242184;28;20033;-68
2021/12/07 02:42:44;;;;;;;10.65;4.63;;;8.00;64.60;;;;;;6195409;28;20070;-68
2021/12/07 02:45:47;;;;;;;8.85;4.38;;;8.00;64.80;;;;;;6236141;28;20112;-68
2021/12/07 02:48:48;;;;;;;8.85;4.05;;;7.90;64.80;;;;;;6235828;28;20034;-68
2021/12/07 02:51:50;;;;;;;8.82;3.45;;;7.90;64.80;;;;;;6236885;28;20037;-68
2021/12/07 02:54:51;;;;;;;8.32;4.38;;;7.90;64.90;;;;;;6219084;28;20060;-68
2021/12/07 02:57:58;;;;;;;8.10;4.43;;;7.90;64.90;;;;;;6242327;28;20480;-67
2021/12/07 03:01:13;;;;;;;7.93;4.03;;;7.80;64.80;;;;;;6235962;28;20269;-67
2021/12/07 03:04:27;;;;;;;4.93;2.88;;;7.70;64.90;;;;;;6257439;28;20045;-67
2021/12/07 03:27:19;;;;;;;3.38;2.22;;;7.20;65.20;;;;;;6237420;28;20091;-67
2021/12/07 03:30:22;;;;;;;4.70;2.38;;;7.10;65.40;;;;;;6237615;28;20030;-67
2021/12/07 03:33:23;;;;;;;6.22;3.50;;;7.10;65.60;;;;;;6239851;28;20462;-69
2021/12/07 03:36:26;;;;;;;6.07;3.20;;;7.00;65.70;;;;;;6241912;28;20081;-67
2021/12/07 03:39:30;;;;;;;4.93;2.50;;;7.00;65.80;;;;;;6219131;28;20066;-67
2021/12/07 03:42:31;;;;;;;7.20;3.40;;;6.90;65.90;;;;;;6236658;28;20048;-67
2021/12/07 03:45:33;;;;;;;4.35;3.17;;;6.90;66.00;;;;;;6238611;28;20033;-67
2021/12/07 03:48:35;;;;;;;5.60;2.60;;;6.90;66.10;;;;;;6231724;28;20451;-69
2021/12/07 03:51:37;;;;;;;5.13;3.17;;;6.90;66.30;;;;;;6238255;28;20030;-67
2021/12/07 03:54:38;;;;;;;3.55;2.40;;;7.00;66.40;;;;;;6238080;28;20108;-67
2021/12/07 03:57:39;;;;;;;5.97;3.05;;;7.00;66.50;;;;;;6237710;28;20052;-68
2021/12/07 04:00:44;;;;;;;8.73;3.40;;;7.00;66.50;;;;;;6214730;28;20061;-68
2021/12/07 04:03:46;;;;;;;7.22;3.38;;;7.00;66.60;;;;;;6216278;28;20036;-67
2021/12/07 04:06:49;;;;;;;6.13;3.40;;;7.10;66.70;;;;;;6233640;28;20043;-68
2021/12/07 04:09:50;;;;;;;10.88;3.75;;;7.10;66.60;;;;;;6239574;28;20040;-69
2021/12/07 04:12:51;;;;;;;6.25;3.33;;;7.00;66.60;;;;;;6240378;28;20054;-69
2021/12/07 04:15:53;;;;;;;7.53;4.30;;;7.00;66.80;;;;;;6239288;28;20092;-67
2021/12/07 04:18:54;;;;;;;7.10;4.65;;;7.00;67.00;;;;;;6229507;28;20034;-68
2021/12/07 04:21:54;;;;;;;13.60;5.28;;;7.00;67.10;;;;;;6235747;28;20048;-68
2021/12/07 04:24:56;;;;;;;8.77;5.05;;;7.00;67.30;;;;;;6214291;28;20037;-68
2021/12/07 04:27:57;;;;;;;12.00;5.88;;;7.00;67.40;;;;;;6234454;28;20072;-68
2021/12/07 04:30:58;;;;;;;10.77;5.50;;;7.10;67.60;;;;;;6239013;28;20087;-68
2021/12/07 04:33:59;;;;;;;12.20;5.38;;;7.10;67.60;;;;;;6221613;28;20041;-67
2021/12/07 04:37:00;;;;;;;12.02;5.55;;;7.10;67.70;;;;;;6237204;28;20140;-67
2021/12/07 04:40:02;;;;;;;10.88;5.43;;;7.10;67.70;;;;;;6240486;28;20037;-67
2021/12/07 04:43:04;;;;;;;20.60;5.32;;;7.10;67.70;;;;;;6235703;28;20037;-67
2021/12/07 04:58:51;;;;;;;12.38;5.72;;;7.00;68.00;;;;;;6238688;28;20041;-68
2021/12/07 05:01:52;;;;;;;10.65;4.72;;;7.00;68.10;;;;;;6238259;28;20041;-67
2021/12/07 05:04:53;;;;;;;11.32;4.80;;;7.10;68.20;;;;;;6234910;28;20358;-67
2021/12/07 05:07:55;;;;;;;6.95;4.40;;;7.00;68.00;;;;;;6238917;28;20109;-67
2021/12/07 05:14:14;;;;;;;10.27;4.97;;;7.00;68.00;;;;;;6232452;28;20038;-67
2021/12/07 05:17:55;;;;;;;11.40;4.78;;;6.90;68.00;;;;;;6235535;28;20041;-67
2021/12/07 05:24:17;;;;;;;8.77;4.30;;;7.10;68.10;;;;;;6234175;28;20037;-68
2021/12/07 05:40:38;;;;;;;11.35;4.63;;;7.20;67.60;;;;;;6238178;28;20036;-67
2021/12/07 05:43:39;;;;;;;8.32;4.45;;;7.30;67.50;;;;;;6237434;28;20041;-67
2021/12/07 05:46:40;;;;;;;10.85;4.57;;;7.30;67.30;;;;;;6240590;28;20113;-67
2021/12/07 05:49:41;;;;;;;15.00;5.45;;;7.30;67.00;;;;;;6236171;28;20409;-68
2021/12/07 05:52:42;;;;;;;6.78;4.40;;;7.40;67.10;;;;;;6239557;28;20048;-68
2021/12/07 05:55:44;;;;;;;13.82;5.75;;;7.40;67.00;;;;;;6243892;28;20485;-68
2021/12/07 05:58:45;;;;;;;10.50;5.35;;;7.40;66.90;;;;;;6233739;28;20064;-69
2021/12/07 06:01:46;;;;;;;10.38;5.60;;;7.40;66.90;;;;;;6214612;28;20347;-69
2021/12/07 06:04:47;;;;;;;13.88;5.93;;;7.40;66.80;;;;;;6230729;28;20056;-68
2021/12/07 06:07:48;;;;;;;18.95;7.43;;;7.50;66.80;;;;;;6240282;28;20040;-68
2021/12/07 06:10:49;;;;;;;16.27;6.78;;;7.40;66.80;;;;;;6236844;28;20068;-69
2021/12/07 06:13:54;;;;;;;15.15;6.97;;;7.50;66.60;;;;;;6239438;28;20049;-69
2021/12/07 06:16:55;;;;;;;20.58;8.95;;;7.50;66.60;;;;;;6239258;28;20126;-68
2021/12/07 06:19:56;;;;;;;15.50;7.97;;;7.40;66.60;;;;;;6241692;28;20094;-68
2021/12/07 06:22:57;;;;;;;14.48;6.85;;;7.50;66.80;;;;;;6239198;28;20041;-67
2021/12/07 06:25:59;;;;;;;18.52;8.02;;;7.50;66.90;;;;;;6224313;28;20456;-68
2021/12/07 06:29:00;;;;;;;20.25;7.43;;;7.40;66.70;;;;;;6226134;28;20033;-67
2021/12/07 06:32:01;;;;;;;14.88;6.57;;;7.40;66.80;;;;;;6240049;28;20140;-69
2021/12/07 06:35:03;;;;;;;15.45;7.75;;;7.50;67.00;;;;;;6236423;28;20045;-67
2021/12/07 06:38:03;;;;;;;14.10;7.80;;;7.50;66.90;;;;;;6239915;28;20427;-68
2021/12/07 06:41:05;;;;;;;13.80;7.15;;;7.50;66.90;;;;;;6238890;28;20045;-68
2021/12/07 06:44:06;;;;;;;19.48;8.52;;;7.60;66.80;;;;;;6237662;28;20033;-67
2021/12/07 06:47:07;;;;;;;16.50;8.15;;;7.60;66.70;;;;;;6236750;28;20045;-67
2021/12/07 06:50:10;;;;;;;18.20;8.00;;;7.60;66.60;;;;;;6219387;28;20041;-68
2021/12/07 06:53:11;;;;;;;16.00;7.72;;;7.70;66.60;;;;;;6236335;28;20406;-68
2021/12/07 06:56:12;;;;;;;20.90;9.07;;;7.60;66.40;;;;;;6216863;28;20034;-68
2021/12/07 06:59:13;;;;;;;17.13;7.95;;;7.60;66.50;;;;;;6241536;28;20037;-69
2021/12/07 07:02:14;;;;;;;21.45;7.85;;;7.70;66.60;;;;;;6240227;28;20061;-68
2021/12/07 07:05:15;;;;;;;15.60;7.45;;;7.70;66.50;;;;;;6213119;28;20050;-68
2021/12/07 07:08:16;;;;;;;12.85;6.25;;;7.70;66.40;;;;;;6236384;28;20049;-69
2021/12/07 07:11:19;;;;;;;11.05;5.57;;;7.70;66.30;;;;;;6235729;28;20030;-67
2021/12/07 07:14:20;;;;;;;15.40;6.55;;;7.70;66.30;;;;;;6217545;28;20049;-67
2021/12/07 07:17:21;;;;;;;16.30;6.50;;;7.70;66.00;;;;;;6240907;28;20033;-69
2021/12/07 07:20:22;;;;;;;12.10;5.78;;;7.70;66.00;;;;;;6217671;28;20099;-67
2021/12/07 07:23:24;;;;;;;14.32;7.03;;;7.60;65.90;;;;;;6234556;28;20037;-67
2021/12/07 07:26:25;;;;;;;19.55;7.43;;;7.60;66.00;;;;;;6239289;28;20113;-67
2021/12/07 07:29:26;;;;;;;14.23;7.38;;;7.50;66.20;;;;;;6230545;28;20445;-68
2021/12/07 07:32:27;;;;;;;17.27;8.18;;;7.50;66.40;;;;;;6220157;28;20068;-70
2021/12/07 07:35:29;;;;;;;12.18;6.60;;;7.50;66.40;;;;;;6237036;28;20030;-67
2021/12/07 07:38:30;;;;;;;16.92;8.05;;;7.50;66.40;;;;;;6240694;28;20063;-67
2021/12/07 07:41:31;;;;;;;14.52;7.22;;;7.50;66.40;;;;;;6237621;28;20056;-67
2021/12/07 07:44:32;;;;;;;17.02;7.95;;;7.50;66.30;;;;;;6216061;28;20044;-67
2021/12/07 07:47:33;;;;;;;17.45;7.50;;;7.50;66.70;;;;;;6214000;28;20045;-67
2021/12/07 07:50:33;;;;;;;19.08;6.78;;;7.50;66.40;;;;;;6214195;28;20033;-67
2021/12/07 07:53:34;;;;;;;16.83;7.68;;;7.40;66.40;;;;;;6211074;28;20034;-67
2021/12/07 07:56:37;;;;;;;15.55;7.30;;;7.40;66.40;;;;;;6232038;28;20061;-68
2021/12/07 07:59:39;;;;;;;23.02;10.30;;;7.40;66.30;;;;;;6236472;28;20069;-68
2021/12/07 08:02:40;;;;;;;20.85;9.70;;;7.40;66.40;;;;;;6243211;28;20466;-67
2021/12/07 08:05:41;;;;;;;21.25;9.18;;;7.40;66.40;;;;;;6227251;28;20097;-67
2021/12/07 08:08:45;;;;;;;24.33;11.63;;;7.40;66.40;;;;;;6236025;28;20045;-67
2021/12/07 08:11:48;;;;;;;24.58;9.80;;;7.40;66.60;;;;;;6240497;28;20116;-68
2021/12/07 08:14:49;;;;;;;15.18;8.48;;;7.50;66.70;;;;;;6223077;28;20041;-67
2021/12/07 08:17:50;;;;;;;14.88;7.55;;;7.60;66.60;;;;;;6237410;28;20034;-68
2021/12/07 08:20:51;;;;;;;16.58;8.27;;;7.60;66.30;;;;;;6217896;28;20061;-68
2021/12/07 08:23:52;;;;;;;17.73;7.85;;;7.60;66.10;;;;;;6209069;28;20038;-67
2021/12/07 08:26:53;;;;;;;16.20;6.43;;;7.60;65.80;;;;;;6233946;28;20118;-68
2021/12/07 08:29:55;;;;;;;13.55;6.25;;;7.60;65.70;;;;;;6222679;28;20045;-69
2021/12/07 08:32:56;;;;;;;15.32;7.13;;;7.50;65.50;;;;;;6238812;28;20053;-69
2021/12/07 08:35:57;;;;;;;11.85;6.45;;;7.50;65.90;;;;;;6234512;28;20034;-67
2021/12/07 08:38:59;;;;;;;9.43;5.25;;;7.50;66.00;;;;;;6237651;28;20033;-68
2021/12/07 08:42:05;;;;;;;13.70;6.68;;;7.50;65.80;;;;;;6234976;28;20050;-68
2021/12/07 08:45:08;;;;;;;11.07;5.88;;;7.60;65.60;;;;;;6230311;28;20396;-68
2021/12/07 08:48:09;;;;;;;13.80;5.55;;;7.60;65.70;;;;;;6238593;28;20056;-68
2021/12/07 08:51:13;;;;;;;14.73;7.57;;;7.60;65.70;;;;;;6238816;28;20034;-69
2021/12/07 09:00:59;;;;;;;20.45;7.25;;;7.70;65.70;;;;;;6206608;28;20121;-68
2021/12/07 09:04:00;;;;;;;17.45;6.40;;;7.70;65.70;;;;;;6190431;28;20049;-68
2021/12/07 09:07:01;;;;;;;17.65;7.30;;;7.80;65.60;;;;;;6206687;28;20042;-67
2021/12/07 09:10:04;;;;;;;14.50;7.32;;;7.80;65.50;;;;;;6211277;28;20046;-67
2021/12/07 09:13:05;;;;;;;11.23;6.03;;;7.90;65.30;;;;;;6193580;28;20072;-67
2021/12/07 09:16:10;;;;;;;18.73;6.70;;;8.00;64.70;;;;;;6213192;28;20038;-68
2021/12/07 09:19:12;;;;;;;12.80;6.25;;;8.00;64.40;;;;;;6218542;28;20040;-68
2021/12/07 09:22:13;;;;;;;9.65;5.07;;;8.10;64.20;;;;;;6215121;28;20034;-68
2021/12/07 09:25:15;;;;;;;18.95;6.65;;;8.20;63.90;;;;;;6173567;28;20037;-68
2021/12/07 09:28:16;;;;;;;13.43;6.60;;;8.20;63.90;;;;;;6218105;28;20059;-68
2021/12/07 09:31:17;;;;;;;25.35;6.30;;;8.20;64.00;;;;;;6213081;28;20071;-67
2021/12/07 09:34:18;;;;;;;17.73;7.78;;;8.20;64.00;;;;;;6216694;28;20029;-69
2021/12/07 09:37:19;;;;;;;11.50;5.88;;;8.20;64.10;;;;;;6239075;28;20115;-67
2021/12/07 09:40:24;;;;;;;11.50;5.63;;;8.20;63.70;;;;;;6216399;28;20096;-68
2021/12/07 09:43:25;;;;;;;15.90;6.72;;;8.10;63.50;;;;;;6238497;28;20079;-69
2021/12/07 09:46:26;;;;;;;15.57;6.47;;;8.00;63.50;;;;;;6243246;28;20041;-67
2021/12/07 09:49:27;;;;;;;16.65;8.13;;;8.00;63.90;;;;;;6236714;28;20041;-67
2021/12/07 09:52:28;;;;;;;19.00;8.77;;;8.00;64.20;;;;;;6236982;28;20090;-68
2021/12/07 09:55:29;;;;;;;14.20;7.20;;;8.10;64.30;;;;;;6215388;28;20385;-68
2021/12/07 09:58:30;;;;;;;13.75;6.90;;;8.20;64.00;;;;;;6212296;28;20126;-69
2021/12/07 10:01:32;;;;;;;14.52;7.50;;;8.30;64.10;;;;;;6202017;28;20101;-69
2021/12/07 10:04:33;;;;;;;19.42;8.68;;;8.30;63.50;;;;;;6234604;28;20037;-69
2021/12/07 10:07:37;;;;;;;15.50;8.60;;;8.30;63.10;;;;;;6238390;28;20034;-68
2021/12/07 10:10:55;;;;;;;16.98;8.30;;;8.40;63.30;;;;;;6239091;28;20114;-68
2021/12/07 10:13:57;;;;;;;17.67;7.70;;;8.40;63.50;;;;;;6224236;28;20061;-68
2021/12/07 10:16:58;;;;;;;12.90;7.28;;;8.60;63.50;;;;;;6226147;28;20057;-68
2021/12/07 10:19:59;;;;;;;19.30;8.63;;;8.70;62.90;;;;;;6219306;28;20045;-68
2021/12/07 10:23:13;;;;;;;21.75;10.43;;;8.80;62.40;;;;;;6239184;28;20384;-67
2021/12/07 10:26:21;;;;;;;13.13;5.47;;;8.90;62.50;;;;;;6234972;28;20478;-68
2021/12/07 10:29:25;;;;;;;18.02;6.88;;;9.10;62.00;;;;;;6238419;28;20119;-69
2021/12/07 10:32:26;;;;;;;18.67;7.90;;;9.10;61.50;;;;;;6232952;28;20123;-69
2021/12/07 10:35:33;;;;;;;45.75;16.60;;;9.20;61.00;;;;;;6245130;28;20030;-68
2021/12/07 10:38:34;;;;;;;40.38;16.95;;;9.30;61.00;;;;;;6221588;28;20052;-69
2021/12/07 10:41:38;;;;;;;24.38;9.50;;;9.40;61.20;;;;;;6234595;28;20037;-68
2021/12/07 10:44:40;;;;;;;19.92;9.88;;;9.50;61.10;;;;;;6251119;28;20061;-69
2021/12/07 10:47:41;;;;;;;24.85;9.65;;;9.60;60.40;;;;;;6219666;28;20518;-69
2021/12/07 10:50:42;;;;;;;17.77;7.45;;;9.50;60.10;;;;;;6213633;28;20084;-68
2021/12/07 10:53:53;;;;;;;17.45;8.18;;;9.60;60.10;;;;;;6216815;28;20065;-68
2021/12/07 10:56:55;;;;;;;27.15;10.07;;;9.90;59.60;;;;;;6215733;28;20118;-68
2021/12/07 11:00:01;;;;;;;28.48;12.18;;;10.10;59.20;;;;;;6207755;28;20046;-68
2021/12/07 11:03:05;;;;;;;23.60;10.35;;;10.40;58.50;;;;;;6234284;28;20041;-69
2021/12/07 11:06:07;;;;;;;22.85;10.60;;;10.60;57.90;;;;;;6237713;28;20038;-68
2021/12/07 11:09:07;;;;;;;20.40;10.13;;;10.80;57.50;;;;;;6242706;28;20095;-69
2021/12/07 11:12:11;;;;;;;16.05;9.10;;;11.00;57.10;;;;;;6240039;28;20041;-69
2021/12/07 11:15:18;;;;;;;19.02;9.45;;;11.20;56.40;;;;;;6236850;28;20042;-68
2021/12/07 11:18:31;;;;;;;26.75;9.98;;;11.40;55.90;;;;;;6240022;28;20046;-69
2021/12/07 11:21:33;;;;;;;29.45;11.68;;;11.70;55.20;;;;;;6240661;28;20457;-68
2021/12/07 11:24:40;;;;;;;21.38;9.10;;;12.20;54.60;;;;;;6238554;28;20033;-69
2021/12/07 11:31:31;;;;;;;19.27;7.95;;;12.90;53.10;;;;;;6214386;28;20108;-69
2021/12/07 11:34:43;;;;;;;12.68;6.60;;;13.30;52.40;;;;;;6227744;28;20052;-69
2021/12/07 11:37:46;;;;;;;16.40;7.10;;;13.20;51.80;;;;;;6211751;28;20026;-67
2021/12/07 11:40:47;;;;;;;15.15;7.30;;;12.90;52.60;;;;;;6212378;28;20380;-69
2021/12/07 11:44:02;;;;;;;18.83;8.00;;;12.50;53.00;;;;;;6213404;28;20038;-67
2021/12/07 11:47:05;;;;;;;12.00;6.53;;;12.10;54.40;;;;;;6228839;28;20076;-68
2021/12/07 11:50:29;;;;;;;14.63;6.65;;;11.80;54.50;;;;;;6238266;28;20220;-67
2021/12/07 11:53:33;;;;;;;19.33;8.73;;;11.60;55.10;;;;;;6212577;28;20044;-67
2021/12/07 11:56:35;;;;;;;14.30;7.32;;;11.40;55.40;;;;;;6221637;28;20033;-68
2021/12/07 11:59:37;;;;;;;20.88;9.38;;;11.20;56.00;;;;;;6236111;28;20037;-68
2021/12/07 12:02:38;;;;;;;20.02;8.40;;;11.10;56.50;;;;;;6222173;28;20034;-68
2021/12/07 12:05:41;;;;;;;15.73;7.25;;;11.00;56.60;;;;;;6212537;28;20026;-68
2021/12/07 12:08:42;;;;;;;13.60;6.55;;;10.90;56.90;;;;;;6244405;28;20038;-69
2021/12/07 12:12:08;;;;;;;12.38;6.40;;;10.90;57.00;;;;;;6224022;28;20052;-69
2021/12/07 12:15:29;;;;;;;13.82;7.07;;;10.70;57.00;;;;;;6234942;28;20040;-69
2021/12/07 12:18:50;;;;;;;14.38;6.13;;;10.60;57.30;;;;;;6232305;28;20033;-68
2021/12/07 12:22:00;;;;;;;16.45;5.60;;;10.60;57.50;;;;;;6232619;28;20045;-68
2021/12/07 12:25:06;;;;;;;17.98;7.05;;;10.70;57.60;;;;;;6207091;28;20056;-68
2021/12/07 12:28:07;;;;;;;7.55;4.43;;;10.60;57.60;;;;;;6235258;28;20044;-68
2021/12/07 12:31:09;;;;;;;10.07;4.78;;;10.60;57.70;;;;;;6232527;28;20120;-68
2021/12/07 12:34:23;;;;;;;10.93;5.03;;;10.60;57.70;;;;;;6235731;28;20103;-68
2021/12/07 12:37:31;;;;;;;9.27;4.78;;;10.60;57.50;;;;;;6235363;28;20049;-68
2021/12/07 12:40:33;;;;;;;12.13;5.15;;;10.70;57.40;;;;;;6189954;28;20029;-68
2021/12/07 12:43:50;;;;;;;10.63;5.38;;;10.60;57.30;;;;;;6221285;28;20029;-69
2021/12/07 12:46:59;;;;;;;17.40;7.45;;;10.70;57.50;;;;;;6237140;28;20045;-68
2021/12/07 12:50:26;;;;;;;8.73;5.28;;;10.70;57.50;;;;;;6236544;28;20041;-69
2021/12/07 12:53:31;;;;;;;8.50;4.55;;;10.80;57.50;;;;;;6241745;28;20037;-69
2021/12/07 12:56:36;;;;;;;18.08;5.30;;;10.90;57.40;;;;;;6240080;28;20029;-69
2021/12/07 12:59:39;;;;;;;10.05;4.80;;;11.00;57.30;;;;;;6243706;28;20045;-68
2021/12/07 13:02:40;;;;;;;17.02;5.82;;;11.00;57.20;;;;;;6242658;28;20029;-69
2021/12/07 13:05:44;;;;;;;11.38;4.63;;;11.10;57.20;;;;;;6243062;28;20034;-68
2021/12/07 13:09:02;;;;;;;8.20;4.00;;;11.20;57.10;;;;;;6243712;28;20062;-70
2021/12/07 13:12:07;;;;;;;6.35;4.28;;;11.20;56.80;;;;;;6237425;28;20065;-69
2021/12/07 13:15:16;;;;;;;7.57;4.10;;;11.30;56.60;;;;;;6242605;28;20478;-69
2021/12/07 13:18:21;;;;;;;8.95;4.55;;;11.30;56.50;;;;;;6242587;28;20116;-69
2021/12/07 13:21:31;;;;;;;23.88;5.35;;;11.30;56.80;;;;;;6241900;28;20038;-69
2021/12/07 13:24:36;;;;;;;12.32;5.20;;;11.40;56.70;;;;;;6241150;28;20045;-67
2021/12/07 13:27:37;;;;;;;13.10;6.03;;;11.40;56.50;;;;;;6239765;28;20086;-68
2021/12/07 13:30:41;;;;;;;15.18;6.90;;;11.50;56.40;;;;;;6239644;28;20037;-67
2021/12/07 13:33:54;;;;;;;7.88;5.03;;;11.50;56.50;;;;;;6243032;28;20041;-68
2021/12/07 13:36:59;;;;;;;10.48;5.47;;;11.50;56.50;;;;;;6241214;28;20033;-69
2021/12/07 13:40:01;;;;;;;12.07;5.75;;;11.50;56.70;;;;;;6216954;28;20038;-68
2021/12/07 13:43:02;;;;;;;14.77;6.53;;;11.40;56.80;;;;;;6219061;28;20721;-68
2021/12/07 13:46:21;;;;;;;9.30;5.97;;;11.40;56.80;;;;;;6218099;28;20038;-68
2021/12/07 13:49:22;;;;;;;9.80;5.00;;;11.40;57.00;;;;;;6234390;28;20130;-68
2021/12/07 13:52:27;;;;;;;9.85;5.07;;;11.40;57.00;;;;;;6241340;28;20405;-69
2021/12/07 13:55:32;;;;;;;13.48;6.07;;;11.40;56.90;;;;;;6241168;28;20142;-68
2021/12/07 13:58:53;;;;;;;12.13;5.95;;;11.30;56.80;;;;;;6223718;28;20080;-68
2021/12/07 14:01:58;;;;;;;16.63;7.03;;;11.20;56.70;;;;;;6240987;28;20037;-68
2021/12/07 14:05:21;;;;;;;14.60;6.32;;;11.20;56.80;;;;;;6238917;28;20038;-68
2021/12/07 14:08:21;;;;;;;15.57;6.38;;;11.20;57.10;;;;;;6241546;28;20025;-69
2021/12/07 14:11:22;;;;;;;19.35;7.57;;;11.20;57.10;;;;;;6241569;28;20428;-67
2021/12/07 14:14:25;;;;;;;20.90;8.40;;;11.20;57.10;;;;;;6242478;28;20466;-69
2021/12/07 14:17:39;;;;;;;19.50;7.28;;;11.20;57.30;;;;;;6236487;28;20102;-69
2021/12/07 14:20:42;;;;;;;10.93;6.47;;;11.20;57.40;;;;;;6237568;28;20108;-68
2021/12/07 14:23:44;;;;;;;12.30;6.95;;;11.20;57.40;;;;;;6238961;28;20045;-68
2021/12/07 14:26:47;;;;;;;10.45;4.97;;;11.20;57.50;;;;;;6255102;28;20037;-69
2021/12/07 14:29:48;;;;;;;22.38;8.65;;;11.20;57.60;;;;;;6224873;28;20111;-68
2021/12/07 14:32:49;;;;;;;9.35;5.00;;;11.20;57.50;;;;;;6213051;28;20046;-67
2021/12/07 14:35:50;;;;;;;7.35;3.80;;;11.20;57.60;;;;;;6236890;28;20048;-68
2021/12/07 14:38:53;;;;;;;8.57;3.42;;;11.10;57.40;;;;;;6235071;28;20049;-69
2021/12/07 14:42:02;;;;;;;7.47;4.13;;;11.10;57.10;;;;;;6238969;28;20034;-68
2021/12/07 14:45:03;;;;;;;13.88;4.50;;;11.00;57.00;;;;;;6237393;28;20029;-68
2021/12/07 14:48:05;;;;;;;8.38;3.65;;;11.00;57.20;;;;;;6237480;28;20030;-68
2021/12/07 14:51:10;;;;;;;14.20;6.32;;;11.00;57.40;;;;;;6234542;28;20489;-67
2021/12/07 14:54:13;;;;;;;12.90;5.72;;;10.90;57.40;;;;;;6239785;28;20102;-68
2021/12/07 14:57:14;;;;;;;10.27;4.97;;;10.90;57.40;;;;;;6222391;28;20363;-69
2021/12/07 15:00:16;;;;;;;13.82;6.25;;;10.90;57.50;;;;;;6220310;28;20034;-67
2021/12/07 15:03:17;;;;;;;13.00;5.13;;;10.90;57.60;;;;;;6215894;28;20096;-68
2021/12/07 15:06:18;;;;;;;11.38;5.63;;;10.90;57.60;;;;;;6214804;28;20065;-68
2021/12/07 15:09:19;;;;;;;16.35;5.57;;;10.90;57.70;;;;;;6235324;28;20049;-67
2021/12/07 15:12:21;;;;;;;12.55;5.13;;;10.90;57.70;;;;;;6236796;28;20045;-68
2021/12/07 15:15:23;;;;;;;11.73;5.70;;;10.90;57.70;;;;;;6236951;28;20041;-69
2021/12/07 15:18:29;;;;;;;22.27;5.90;;;10.90;57.90;;;;;;6248629;28;20121;-69
2021/12/07 15:21:32;;;;;;;14.20;6.15;;;10.90;58.50;;;;;;6237538;28;20148;-68
2021/12/07 15:24:36;;;;;;;10.85;4.80;;;10.90;58.00;;;;;;6239576;28;20045;-68
2021/12/07 15:27:37;;;;;;;36.28;10.68;;;10.90;58.10;;;;;;6237546;28;20116;-68
2021/12/07 15:30:38;;;;;;;20.83;8.82;;;10.90;58.10;;;;;;6238341;28;20455;-68
2021/12/07 15:33:39;;;;;;;15.60;5.57;;;11.00;58.10;;;;;;6219705;28;20042;-68
2021/12/07 15:36:45;;;;;;;13.75;5.65;;;11.00;57.90;;;;;;6212890;28;20034;-69
2021/12/07 15:39:52;;;;;;;15.45;6.05;;;11.00;57.90;;;;;;6224596;28;20101;-68
2021/12/07 15:42:53;;;;;;;12.17;5.67;;;11.00;58.00;;;;;;6232997;28;20389;-68
2021/12/07 15:45:54;;;;;;;19.83;8.43;;;11.00;58.00;;;;;;6241239;28;20030;-69
2021/12/07 15:48:57;;;;;;;15.15;6.32;;;11.00;57.90;;;;;;6236659;28;20446;-69
2021/12/07 15:52:01;;;;;;;14.60;7.07;;;11.00;57.90;;;;;;6237410;28;20079;-67
2021/12/07 15:55:19;;;;;;;25.77;10.43;;;11.00;57.80;;;;;;6237384;28;20056;-68
2021/12/07 15:58:24;;;;;;;10.90;5.53;;;11.00;57.80;;;;;;6217504;28;20096;-69
2021/12/07 16:01:37;;;;;;;20.92;7.57;;;11.00;57.80;;;;;;6229579;28;20112;-68
2021/12/07 16:04:39;;;;;;;13.32;6.57;;;11.00;57.90;;;;;;6217628;28;20116;-69
2021/12/07 16:07:49;;;;;;;17.52;6.80;;;11.00;57.80;;;;;;6237331;28;20056;-68
2021/12/07 16:10:54;;;;;;;16.63;6.10;;;10.90;57.90;;;;;;6237855;28;20061;-68
2021/12/07 16:13:58;;;;;;;19.52;7.30;;;10.90;57.90;;;;;;6236978;28;20046;-67
2021/12/07 16:16:59;;;;;;;35.25;12.20;;;10.90;58.10;;;;;;6238494;28;20044;-68
2021/12/07 16:20:00;;;;;;;30.67;12.57;;;10.80;58.20;;;;;;6234668;28;20065;-68
2021/12/07 16:23:03;;;;;;;23.23;9.50;;;10.80;58.40;;;;;;6239381;28;20034;-68
2021/12/07 16:26:09;;;;;;;24.15;9.75;;;10.70;58.70;;;;;;6232529;28;20057;-67
2021/12/07 16:29:09;;;;;;;17.95;8.32;;;10.70;58.90;;;;;;6216926;28;20038;-69
2021/12/07 16:32:12;;;;;;;19.15;6.10;;;10.70;59.10;;;;;;6222553;28;20044;-68
2021/12/07 16:35:15;;;;;;;17.77;6.20;;;10.60;59.00;;;;;;6210985;28;20050;-68
2021/12/07 16:38:15;;;;;;;10.68;5.63;;;10.50;59.20;;;;;;6208782;28;20065;-68
2021/12/07 16:41:17;;;;;;;11.57;5.15;;;10.40;59.50;;;;;;6235844;28;20041;-68
2021/12/07 16:44:18;;;;;;;15.38;5.43;;;10.40;59.70;;;;;;6240116;28;20063;-68
2021/12/07 16:47:19;;;;;;;14.52;6.22;;;10.40;59.70;;;;;;6217281;28;20415;-69
2021/12/07 16:50:22;;;;;;;9.68;4.57;;;10.40;59.60;;;;;;6237819;28;20033;-68
2021/12/07 16:53:24;;;;;;;14.93;5.65;;;10.50;59.60;;;;;;6235624;28;20037;-68
2021/12/07 16:56:25;;;;;;;14.82;5.85;;;10.50;59.50;;;;;;6234783;28;20057;-67
2021/12/07 16:59:27;;;;;;;12.48;4.95;;;10.60;59.50;;;;;;6219981;28;20430;-68
2021/12/07 17:02:28;;;;;;;17.70;7.30;;;10.50;59.30;;;;;;6240099;28;20041;-69
2021/12/07 17:05:30;;;;;;;12.73;4.35;;;10.50;59.50;;;;;;6235162;28;20049;-69
2021/12/07 17:08:31;;;;;;;11.80;5.82;;;10.50;59.60;;;;;;6234525;28;20084;-68
2021/12/07 17:11:32;;;;;;;8.35;3.50;;;10.50;59.50;;;;;;6236220;28;20115;-70
2021/12/07 17:14:36;;;;;;;10.60;5.00;;;10.50;59.30;;;;;;6237256;28;20041;-69
2021/12/07 17:17:36;;;;;;;10.40;4.80;;;10.60;59.20;;;;;;6231752;28;20049;-68
2021/12/07 17:20:44;;;;;;;9.32;4.75;;;10.60;59.10;;;;;;6198359;28;20454;-67
2021/12/07 17:23:46;;;;;;;13.10;5.93;;;10.70;59.20;;;;;;6226967;28;20148;-67
2021/12/07 17:26:48;;;;;;;16.17;5.90;;;10.70;59.10;;;;;;6234465;28;20497;-68
2021/12/07 17:29:49;;;;;;;40.25;14.88;;;10.80;59.10;;;;;;6237990;28;20091;-68
2021/12/07 17:32:50;;;;;;;28.67;10.98;;;10.80;59.00;;;;;;6238740;28;20447;-68